Time;durP1;ratioP1;P1;durP2;ratioP2;P2;SDS_P1;SDS_P2;PMS_P1;PMS_P2;Temp;Humidity;BMP_temperature;BMP_pressure;BME280_temperature;BME280_humidity;BME280_pressure;Samples;Min_cycle;Max_cycle;Signal;HPM_P1;HPM_P2
2023/08/21 00:01:37;;;;;;;6.75;3.67;;;21.20;99.90;;;;;;4991719;28;20383;-80
2023/08/21 00:04:03;;;;;;;3.72;3.30;;;21.10;99.90;;;;;;4957340;28;20399;-80
2023/08/21 00:06:29;;;;;;;4.25;3.80;;;21.10;99.90;;;;;;4970618;28;20121;-80
2023/08/21 00:08:54;;;;;;;7.88;4.30;;;21.20;99.90;;;;;;4971952;28;20137;-80
2023/08/21 00:11:20;;;;;;;5.07;3.83;;;21.10;99.90;;;;;;4972052;28;20027;-81
2023/08/21 00:13:48;;;;;;;5.25;4.07;;;21.10;99.90;;;;;;4954809;28;20029;-81
2023/08/21 00:16:14;;;;;;;4.13;3.58;;;21.10;99.90;;;;;;4972545;28;20038;-81
2023/08/21 00:18:39;;;;;;;5.65;3.92;;;21.10;99.90;;;;;;4970412;28;20030;-81
2023/08/21 00:21:05;;;;;;;9.35;3.63;;;21.20;99.90;;;;;;4954318;28;20027;-81
2023/08/21 00:23:31;;;;;;;6.15;3.72;;;21.20;99.90;;;;;;4970656;28;20447;-81
2023/08/21 00:25:57;;;;;;;4.45;4.03;;;21.20;99.90;;;;;;4971351;28;20069;-81
2023/08/21 00:28:22;;;;;;;6.70;4.28;;;21.10;99.90;;;;;;4970348;28;20419;-81
2023/08/21 00:30:48;;;;;;;6.10;4.22;;;21.10;99.90;;;;;;4970430;28;20101;-80
2023/08/21 00:33:14;;;;;;;7.20;3.97;;;21.10;99.90;;;;;;4971194;28;20396;-80
2023/08/21 00:35:39;;;;;;;8.75;4.05;;;21.10;99.90;;;;;;4970228;28;20042;-80
2023/08/21 00:38:05;;;;;;;5.07;3.67;;;21.10;99.90;;;;;;4971989;28;20601;-80
2023/08/21 00:40:31;;;;;;;14.35;4.43;;;21.10;99.90;;;;;;4971920;28;20793;-79
2023/08/21 00:42:56;;;;;;;6.80;3.63;;;21.00;99.90;;;;;;4971739;28;20034;-80
2023/08/21 00:45:22;;;;;;;8.15;4.25;;;21.00;99.90;;;;;;4971351;28;20402;-80
2023/08/21 00:47:48;;;;;;;4.45;3.72;;;21.10;99.90;;;;;;4971212;28;20023;-80
2023/08/21 00:50:15;;;;;;;7.80;3.70;;;21.10;99.90;;;;;;4971313;28;20421;-80
2023/08/21 00:52:44;;;;;;;4.05;3.50;;;21.10;99.90;;;;;;4954081;28;20492;-80
2023/08/21 00:55:11;;;;;;;9.10;4.28;;;21.10;99.90;;;;;;4953814;28;20170;-79
2023/08/21 00:57:37;;;;;;;6.07;4.07;;;21.00;99.90;;;;;;4971396;28;20483;-79
2023/08/21 01:00:05;;;;;;;6.05;4.22;;;20.80;99.90;;;;;;4971091;28;20523;-81
2023/08/21 01:02:31;;;;;;;4.40;3.85;;;20.80;99.90;;;;;;4970135;28;20109;-80
2023/08/21 01:04:56;;;;;;;4.25;3.63;;;20.80;99.90;;;;;;4979072;28;20540;-80
2023/08/21 01:07:22;;;;;;;7.28;4.22;;;20.70;99.90;;;;;;4972780;28;20022;-80
2023/08/21 01:10:25;;;;;;;4.80;3.58;;;20.80;99.90;;;;;;4990363;28;20025;-79
2023/08/21 01:13:22;;;;;;;5.57;5.03;;;20.90;99.90;;;;;;4990544;28;20018;-79
2023/08/21 01:15:50;;;;;;;5.35;3.72;;;20.90;99.90;;;;;;4952322;28;20100;-80
2023/08/21 01:18:17;;;;;;;8.95;4.60;;;20.90;99.90;;;;;;4989782;28;20065;-80
2023/08/21 01:20:44;;;;;;;7.07;3.53;;;20.90;99.90;;;;;;4972786;28;20305;-80
2023/08/21 01:23:09;;;;;;;5.10;4.05;;;20.90;99.90;;;;;;4972192;28;20045;-80
2023/08/21 01:25:35;;;;;;;4.22;3.83;;;20.90;99.90;;;;;;4990065;28;20097;-81
2023/08/21 01:28:01;;;;;;;8.90;4.82;;;20.80;99.90;;;;;;4972452;28;20499;-81
2023/08/21 01:30:31;;;;;;;7.35;3.72;;;20.80;99.90;;;;;;4990097;28;20479;-80
2023/08/21 01:33:10;;;;;;;8.05;4.25;;;20.80;99.90;;;;;;4987958;28;20037;-80
2023/08/21 01:35:36;;;;;;;5.97;4.35;;;20.80;99.90;;;;;;4970634;28;20046;-78
2023/08/21 01:38:05;;;;;;;6.18;4.25;;;20.90;99.90;;;;;;4987697;28;20018;-80
2023/08/21 01:40:31;;;;;;;7.32;4.07;;;20.90;99.90;;;;;;4988235;28;20065;-79
2023/08/21 01:42:56;;;;;;;7.78;4.57;;;20.90;99.90;;;;;;4970651;28;20053;-80
2023/08/21 01:45:23;;;;;;;4.82;3.90;;;20.80;99.90;;;;;;4988294;28;20262;-80
2023/08/21 01:47:48;;;;;;;5.50;3.85;;;20.80;99.90;;;;;;4988485;28;20018;-79
2023/08/21 01:50:14;;;;;;;8.90;3.63;;;20.80;99.90;;;;;;4988989;28;20022;-79
2023/08/21 01:52:39;;;;;;;6.35;4.40;;;20.80;99.90;;;;;;4989718;28;20186;-80
2023/08/21 01:55:07;;;;;;;7.15;4.55;;;20.80;99.90;;;;;;4989600;28;20030;-79
2023/08/21 01:57:33;;;;;;;8.02;4.38;;;20.80;99.90;;;;;;4989611;28;20447;-81
2023/08/21 01:59:59;;;;;;;7.10;4.47;;;20.80;99.90;;;;;;4972113;28;20038;-80
2023/08/21 02:02:25;;;;;;;6.35;4.68;;;20.80;99.90;;;;;;4989129;28;20032;-80
2023/08/21 02:04:50;;;;;;;6.10;4.28;;;20.80;99.90;;;;;;4989678;28;20069;-80
2023/08/21 02:07:16;;;;;;;6.13;3.80;;;20.70;99.90;;;;;;4989664;28;20474;-80
2023/08/21 02:09:43;;;;;;;6.80;4.20;;;20.70;99.90;;;;;;4989531;28;20073;-81
2023/08/21 02:12:08;;;;;;;4.72;4.15;;;20.70;99.90;;;;;;4989644;28;20097;-81
2023/08/21 02:14:34;;;;;;;6.75;5.10;;;20.60;99.90;;;;;;4989940;28;20026;-81
2023/08/21 02:16:59;;;;;;;8.88;4.53;;;20.50;99.90;;;;;;4989346;28;20065;-80
2023/08/21 02:19:25;;;;;;;5.78;4.43;;;20.50;99.90;;;;;;4989442;28;20467;-80
2023/08/21 02:21:51;;;;;;;8.85;4.93;;;20.50;99.90;;;;;;4989456;28;20033;-80
2023/08/21 02:24:16;;;;;;;6.43;4.40;;;20.50;99.90;;;;;;4971806;28;20387;-80
2023/08/21 02:26:45;;;;;;;7.82;4.47;;;20.50;99.90;;;;;;4989699;28;20022;-80
2023/08/21 02:29:10;;;;;;;7.55;5.20;;;20.40;99.90;;;;;;4972109;28;20061;-80
2023/08/21 02:31:36;;;;;;;5.72;4.93;;;20.30;99.90;;;;;;4971788;28;20271;-81
2023/08/21 02:34:01;;;;;;;5.30;4.28;;;20.30;99.90;;;;;;4989629;28;20030;-80
2023/08/21 02:36:27;;;;;;;7.63;5.03;;;20.30;99.90;;;;;;4989442;28;20039;-81
2023/08/21 02:38:53;;;;;;;5.10;4.60;;;20.30;99.90;;;;;;4971924;28;20030;-81
2023/08/21 02:41:18;;;;;;;11.35;4.25;;;20.40;99.90;;;;;;4989546;28;20487;-82
2023/08/21 02:43:44;;;;;;;4.43;4.00;;;20.40;99.90;;;;;;4989126;28;20026;-81
2023/08/21 02:46:10;;;;;;;7.35;4.07;;;20.40;99.90;;;;;;4971746;28;20480;-79
2023/08/21 02:48:35;;;;;;;4.55;4.15;;;20.40;99.90;;;;;;4989797;28;20030;-80
2023/08/21 02:51:02;;;;;;;8.23;4.60;;;20.30;99.90;;;;;;4992991;28;20031;-80
2023/08/21 02:53:28;;;;;;;5.78;4.50;;;20.30;99.90;;;;;;4993507;28;20015;-80
2023/08/21 02:55:54;;;;;;;4.55;4.15;;;20.20;99.90;;;;;;4992818;28;20329;-80
2023/08/21 02:58:19;;;;;;;4.47;3.70;;;20.20;99.90;;;;;;4992818;28;20036;-80
2023/08/21 03:00:45;;;;;;;10.18;5.15;;;20.20;99.90;;;;;;4975129;28;20050;-80
2023/08/21 03:03:11;;;;;;;6.47;4.05;;;20.10;99.90;;;;;;4992641;28;20241;-79
2023/08/21 03:05:37;;;;;;;5.72;4.18;;;20.10;99.90;;;;;;4992614;28;20109;-80
2023/08/21 03:08:02;;;;;;;4.70;3.60;;;20.00;99.90;;;;;;4975331;28;20050;-79
2023/08/21 03:10:33;;;;;;;4.57;3.67;;;20.00;99.90;;;;;;4993333;28;20545;-80
2023/08/21 03:12:59;;;;;;;4.60;4.20;;;20.00;99.90;;;;;;4992629;28;20045;-80
2023/08/21 03:15:24;;;;;;;7.78;4.55;;;19.90;99.90;;;;;;4992594;28;20453;-79
2023/08/21 03:17:50;;;;;;;7.70;4.30;;;19.90;99.90;;;;;;4992203;28;20092;-80
2023/08/21 03:20:17;;;;;;;7.38;4.70;;;19.80;99.90;;;;;;4992997;28;20110;-80
2023/08/21 03:22:43;;;;;;;8.25;4.97;;;19.80;99.90;;;;;;4992875;28;20184;-80
2023/08/21 03:25:09;;;;;;;9.30;4.20;;;19.80;99.90;;;;;;4992798;28;20440;-79
2023/08/21 03:27:39;;;;;;;7.57;5.25;;;19.80;99.90;;;;;;4992566;28;20089;-80
2023/08/21 03:30:06;;;;;;;8.02;4.45;;;19.70;99.90;;;;;;4983755;28;20494;-80
2023/08/21 03:32:32;;;;;;;6.53;4.50;;;19.70;99.90;;;;;;4955397;28;20515;-80
2023/08/21 03:34:58;;;;;;;5.35;4.28;;;19.60;99.90;;;;;;4972960;28;20480;-79
2023/08/21 03:37:24;;;;;;;7.03;4.72;;;19.60;99.90;;;;;;4955194;28;20045;-80
2023/08/21 03:39:49;;;;;;;5.85;4.85;;;19.40;99.90;;;;;;4972532;28;20050;-80
2023/08/21 03:42:15;;;;;;;6.03;4.75;;;19.60;99.90;;;;;;4955583;28;20435;-82
2023/08/21 03:44:41;;;;;;;7.00;5.45;;;19.60;99.90;;;;;;4973298;28;20030;-80
2023/08/21 03:47:06;;;;;;;6.65;4.93;;;19.60;99.90;;;;;;4972828;28;20106;-82
2023/08/21 03:49:32;;;;;;;4.18;3.80;;;19.60;99.90;;;;;;4975741;28;20034;-85
2023/08/21 03:51:58;;;;;;;6.47;4.75;;;19.60;99.90;;;;;;4972120;28;20396;-83
2023/08/21 03:54:23;;;;;;;11.23;5.00;;;19.60;99.90;;;;;;4974303;28;20058;-86
2023/08/21 03:56:49;;;;;;;4.75;3.67;;;19.60;99.90;;;;;;4974368;28;20164;-84
2023/08/21 03:59:14;;;;;;;4.13;3.50;;;19.60;99.90;;;;;;4973341;28;20022;-84
2023/08/21 04:01:40;;;;;;;5.78;4.18;;;19.50;99.90;;;;;;4971872;28;20050;-80
2023/08/21 04:04:06;;;;;;;4.32;3.88;;;19.50;99.90;;;;;;4972496;28;20540;-83
2023/08/21 04:06:31;;;;;;;8.18;4.40;;;19.40;99.90;;;;;;4972538;28;20029;-79
2023/08/21 04:08:57;;;;;;;4.93;4.43;;;19.40;99.90;;;;;;4972203;28;20384;-79
2023/08/21 04:11:23;;;;;;;8.13;4.32;;;19.40;99.90;;;;;;4972186;28;20054;-79
2023/08/21 04:13:48;;;;;;;5.90;3.67;;;19.40;99.90;;;;;;4954691;28;20023;-79
2023/08/21 04:16:14;;;;;;;5.03;3.80;;;19.40;99.90;;;;;;4971796;28;20558;-79
2023/08/21 04:18:40;;;;;;;8.38;4.28;;;19.30;99.90;;;;;;4972012;28;20035;-77
2023/08/21 04:21:06;;;;;;;7.43;5.03;;;19.30;99.90;;;;;;4972163;28;20030;-79
2023/08/21 04:23:31;;;;;;;7.85;5.38;;;19.20;99.90;;;;;;4971784;28;20018;-78
2023/08/21 04:26:02;;;;;;;8.73;5.45;;;19.10;99.90;;;;;;4971744;28;20357;-79
2023/08/21 04:28:27;;;;;;;9.90;5.35;;;19.10;99.90;;;;;;4971653;28;20333;-79
2023/08/21 04:30:53;;;;;;;6.32;4.95;;;19.10;99.90;;;;;;4971569;28;20034;-80
2023/08/21 04:33:19;;;;;;;7.80;5.60;;;19.10;99.90;;;;;;4969280;28;20099;-78
2023/08/21 04:35:44;;;;;;;6.55;5.35;;;19.20;99.90;;;;;;4969350;28;20484;-77
2023/08/21 04:38:10;;;;;;;5.38;4.65;;;19.20;99.90;;;;;;4971139;28;20134;-79
2023/08/21 04:40:35;;;;;;;5.65;4.40;;;19.30;99.90;;;;;;4969678;28;20026;-79
2023/08/21 04:43:01;;;;;;;9.77;6.05;;;19.30;99.90;;;;;;4970822;28;20031;-80
2023/08/21 04:45:27;;;;;;;5.55;4.47;;;19.20;99.90;;;;;;4969331;28;20054;-79
2023/08/21 04:47:52;;;;;;;12.43;5.35;;;19.30;99.90;;;;;;4952974;28;20030;-82
2023/08/21 04:50:18;;;;;;;10.07;5.05;;;19.20;99.90;;;;;;4970916;28;20130;-79
2023/08/21 04:52:44;;;;;;;6.28;4.82;;;19.20;99.90;;;;;;4970623;28;20347;-79
2023/08/21 04:55:09;;;;;;;10.15;5.85;;;19.20;99.90;;;;;;4971382;28;20019;-79
2023/08/21 04:57:35;;;;;;;5.75;4.60;;;19.20;99.90;;;;;;4971130;28;20031;-78
2023/08/21 05:00:00;;;;;;;7.13;4.68;;;19.30;99.90;;;;;;4970999;28;20043;-77
2023/08/21 05:02:26;;;;;;;6.95;4.80;;;19.40;99.90;;;;;;4970621;28;20483;-78
2023/08/21 05:04:52;;;;;;;5.55;4.57;;;19.50;99.90;;;;;;4970906;28;20027;-76
2023/08/21 05:07:17;;;;;;;9.65;4.88;;;19.50;99.90;;;;;;4970937;28;20027;-77
2023/08/21 05:09:43;;;;;;;5.75;4.88;;;19.60;99.90;;;;;;4970762;28;20027;-78
2023/08/21 05:12:08;;;;;;;7.03;4.93;;;19.70;99.90;;;;;;4970235;28;20077;-77
2023/08/21 05:14:34;;;;;;;8.25;4.50;;;19.70;99.90;;;;;;4970629;28;20085;-77
2023/08/21 05:17:00;;;;;;;6.18;4.75;;;19.80;99.90;;;;;;4969448;28;20125;-80
2023/08/21 05:19:25;;;;;;;7.93;4.90;;;19.90;99.90;;;;;;4971186;28;20026;-79
2023/08/21 05:21:51;;;;;;;6.22;5.13;;;19.90;99.90;;;;;;4953502;28;20085;-80
2023/08/21 05:24:17;;;;;;;8.93;5.18;;;20.00;99.90;;;;;;4971292;28;20213;-79
2023/08/21 05:26:42;;;;;;;6.40;4.60;;;20.10;99.90;;;;;;4953607;28;20452;-79
2023/08/21 05:29:08;;;;;;;7.53;4.57;;;20.10;99.90;;;;;;4970718;28;20123;-79
2023/08/21 05:31:33;;;;;;;5.00;4.30;;;20.20;99.90;;;;;;4956340;28;20035;-79
2023/08/21 05:33:59;;;;;;;8.35;4.88;;;20.30;99.90;;;;;;4970700;28;20053;-79
2023/08/21 05:36:25;;;;;;;5.40;4.03;;;20.30;99.90;;;;;;4970635;28;20574;-79
2023/08/21 05:38:51;;;;;;;6.72;4.22;;;20.30;99.90;;;;;;4968911;28;20483;-78
2023/08/21 05:41:17;;;;;;;5.78;3.90;;;20.30;99.90;;;;;;4970468;28;20037;-78
2023/08/21 05:43:43;;;;;;;6.97;5.25;;;20.40;99.90;;;;;;4970299;28;20022;-78
2023/08/21 05:46:09;;;;;;;7.07;5.55;;;20.50;99.90;;;;;;4970012;28;20021;-79
2023/08/21 05:48:34;;;;;;;11.10;4.45;;;20.60;99.90;;;;;;4970764;28;20184;-79
2023/08/21 05:51:00;;;;;;;13.85;4.75;;;20.80;99.90;;;;;;4970341;28;20035;-79
2023/08/21 05:53:26;;;;;;;7.05;4.47;;;20.90;99.90;;;;;;4969055;28;20331;-78
2023/08/21 05:55:52;;;;;;;4.72;4.05;;;21.00;99.90;;;;;;4970568;28;20033;-79
2023/08/21 05:58:18;;;;;;;5.97;4.47;;;21.20;99.90;;;;;;4970152;28;20027;-77
2023/08/21 06:00:44;;;;;;;4.18;3.42;;;21.30;99.90;;;;;;4969941;28;20049;-77
2023/08/21 06:03:10;;;;;;;23.45;12.50;;;21.30;99.90;;;;;;4968496;28;20069;-78
2023/08/21 06:05:35;;;;;;;7.07;5.28;;;21.40;99.90;;;;;;4984946;28;20456;-78
2023/08/21 06:08:01;;;;;;;8.50;4.35;;;21.50;99.90;;;;;;4970100;28;20035;-76
2023/08/21 06:10:27;;;;;;;5.40;4.28;;;21.60;99.90;;;;;;4985018;28;20027;-76
2023/08/21 06:12:52;;;;;;;6.30;4.53;;;21.70;99.90;;;;;;4984742;28;20494;-76
2023/08/21 06:15:18;;;;;;;7.20;5.63;;;21.80;99.90;;;;;;4970139;28;20042;-78
2023/08/21 06:17:44;;;;;;;5.80;3.85;;;22.00;99.90;;;;;;4969343;28;20485;-80
2023/08/21 06:20:09;;;;;;;9.45;4.10;;;22.10;99.90;;;;;;4968599;28;20178;-78
2023/08/21 06:22:36;;;;;;;12.88;4.22;;;22.10;99.90;;;;;;4977754;28;20086;-78
2023/08/21 06:25:01;;;;;;;6.65;4.45;;;22.20;99.90;;;;;;4981872;28;20109;-78
2023/08/21 06:27:27;;;;;;;9.05;5.80;;;22.30;99.90;;;;;;4988239;28;20602;-77
2023/08/21 06:29:53;;;;;;;13.88;5.22;;;22.50;99.90;;;;;;4992750;28;20475;-74
2023/08/21 06:32:18;;;;;;;5.07;3.75;;;22.60;99.90;;;;;;4992652;28;20018;-76
2023/08/21 06:34:44;;;;;;;5.25;4.35;;;22.70;99.90;;;;;;4993059;28;20118;-76
2023/08/21 06:37:10;;;;;;;6.38;4.25;;;22.80;99.90;;;;;;4991312;28;20044;-75
2023/08/21 06:39:35;;;;;;;10.25;4.40;;;23.10;99.90;;;;;;4993047;28;20037;-74
2023/08/21 06:42:01;;;;;;;5.28;4.60;;;23.10;99.90;;;;;;4993052;28;20293;-75
2023/08/21 06:44:27;;;;;;;5.93;4.47;;;23.20;99.90;;;;;;4992985;28;20030;-78
2023/08/21 06:46:53;;;;;;;6.93;4.70;;;23.40;99.90;;;;;;4992742;28;20030;-79
2023/08/21 06:49:18;;;;;;;6.45;4.63;;;23.50;99.90;;;;;;4993019;28;20030;-78
2023/08/21 06:51:44;;;;;;;5.30;3.88;;;23.80;99.90;;;;;;4992690;28;20069;-77
2023/08/21 06:54:10;;;;;;;8.43;3.97;;;23.90;99.90;;;;;;4991263;28;20058;-76
2023/08/21 06:56:36;;;;;;;10.27;4.57;;;24.10;99.90;;;;;;4992711;28;20072;-75
2023/08/21 06:59:02;;;;;;;5.65;5.15;;;24.30;99.90;;;;;;4993038;28;20033;-76
2023/08/21 07:01:28;;;;;;;7.63;5.38;;;24.50;99.90;;;;;;4992244;28;20085;-76
2023/08/21 07:03:53;;;;;;;4.72;4.15;;;24.70;99.90;;;;;;4977778;28;20031;-78
2023/08/21 07:06:19;;;;;;;7.35;5.82;;;24.70;99.90;;;;;;4955543;28;20027;-78
2023/08/21 07:08:45;;;;;;;9.35;5.15;;;24.70;99.90;;;;;;4955499;28;20019;-79
2023/08/21 07:11:12;;;;;;;6.10;4.90;;;24.90;99.90;;;;;;4972989;28;20138;-79
2023/08/21 07:13:37;;;;;;;5.30;4.82;;;24.60;99.90;;;;;;4964883;28;20361;-77
2023/08/21 07:16:05;;;;;;;5.93;4.93;;;24.80;99.90;;;;;;4981188;28;20372;-78
2023/08/21 07:18:32;;;;;;;7.78;5.00;;;24.80;99.90;;;;;;4965675;28;20019;-76
2023/08/21 07:20:58;;;;;;;10.50;4.70;;;24.80;99.90;;;;;;4980589;28;20044;-76
2023/08/21 07:23:23;;;;;;;7.45;4.68;;;24.80;99.90;;;;;;4960682;28;20468;-76
2023/08/21 07:25:49;;;;;;;13.00;5.50;;;24.90;99.90;;;;;;4981575;28;20030;-75
2023/08/21 07:28:15;;;;;;;7.72;4.82;;;25.10;99.90;;;;;;4960083;28;20392;-74
2023/08/21 07:30:40;;;;;;;11.05;4.95;;;25.20;99.90;;;;;;4979834;28;20037;-74
2023/08/21 07:33:06;;;;;;;8.15;4.32;;;25.30;99.90;;;;;;4983242;28;20104;-73
2023/08/21 07:35:32;;;;;;;9.88;5.10;;;25.20;99.90;;;;;;4981556;28;20018;-74
2023/08/21 07:37:58;;;;;;;4.85;4.00;;;25.20;99.90;;;;;;4962577;28;20101;-73
2023/08/21 07:40:24;;;;;;;7.05;4.53;;;25.30;99.90;;;;;;4972076;28;20464;-74
2023/08/21 07:42:50;;;;;;;6.35;5.30;;;25.50;99.90;;;;;;4980798;28;20031;-74
2023/08/21 07:45:16;;;;;;;5.55;4.47;;;25.70;99.90;;;;;;4976598;28;20089;-73
2023/08/21 07:47:42;;;;;;;7.10;5.20;;;25.70;99.90;;;;;;4971326;28;20023;-72
2023/08/21 07:50:08;;;;;;;8.13;5.72;;;25.80;99.90;;;;;;4971247;28;20054;-73
2023/08/21 07:52:35;;;;;;;5.85;4.45;;;26.00;99.90;;;;;;4969863;28;20369;-74
2023/08/21 07:55:01;;;;;;;6.72;5.85;;;26.40;99.90;;;;;;4970677;28;20027;-72
2023/08/21 07:57:28;;;;;;;7.78;4.88;;;26.20;99.90;;;;;;4961285;28;20057;-73
2023/08/21 07:59:53;;;;;;;5.85;4.60;;;26.30;99.90;;;;;;4973939;28;20541;-73
2023/08/21 08:02:19;;;;;;;12.05;5.38;;;26.50;99.90;;;;;;4968830;28;20087;-75
2023/08/21 08:04:46;;;;;;;6.50;5.00;;;26.80;99.90;;;;;;4991023;28;20026;-72
2023/08/21 08:07:11;;;;;;;5.57;4.68;;;26.80;99.90;;;;;;4987651;28;20271;-72
2023/08/21 08:09:37;;;;;;;7.72;4.70;;;26.80;99.90;;;;;;4992433;28;20173;-72
2023/08/21 08:12:05;;;;;;;4.90;4.45;;;26.70;99.90;;;;;;4990530;28;20368;-71
2023/08/21 08:14:31;;;;;;;11.32;4.35;;;26.70;99.90;;;;;;4989309;28;20085;-72
2023/08/21 08:16:57;;;;;;;5.15;4.30;;;27.00;99.90;;;;;;4972280;28;20443;-71
2023/08/21 08:19:23;;;;;;;7.85;4.82;;;27.30;99.90;;;;;;4990140;28;20019;-71
2023/08/21 08:21:49;;;;;;;6.03;4.75;;;27.90;99.90;;;;;;4989313;28;20030;-73
2023/08/21 08:24:14;;;;;;;7.97;4.97;;;28.50;99.90;;;;;;4987779;28;20037;-75
2023/08/21 08:26:42;;;;;;;6.13;4.80;;;29.40;99.90;;;;;;4971669;28;20081;-71
2023/08/21 08:29:08;;;;;;;7.97;4.78;;;30.50;99.90;;;;;;4989079;28;20365;-72
2023/08/21 08:31:33;;;;;;;5.55;4.53;;;31.80;97.00;;;;;;4978056;28;20822;-71
2023/08/21 08:33:59;;;;;;;7.45;4.63;;;32.20;94.20;;;;;;4969990;28;20042;-71
2023/08/21 08:36:24;;;;;;;5.95;4.10;;;32.40;92.90;;;;;;4970945;28;20046;-71
2023/08/21 08:38:50;;;;;;;4.68;4.07;;;32.20;91.80;;;;;;4969819;28;20546;-71
2023/08/21 08:41:28;;;;;;;4.90;4.40;;;31.20;92.90;;;;;;4986299;28;20058;-71
2023/08/21 08:43:57;;;;;;;5.88;4.18;;;31.30;92.60;;;;;;4990528;28;20253;-71
2023/08/21 08:46:24;;;;;;;6.28;4.75;;;31.10;92.60;;;;;;4988999;28;20069;-71
2023/08/21 08:48:50;;;;;;;4.93;4.18;;;31.00;92.70;;;;;;4989903;28;20395;-71
2023/08/21 08:51:16;;;;;;;5.70;4.70;;;31.50;92.00;;;;;;4972969;28;20473;-71
2023/08/21 08:53:43;;;;;;;11.40;4.85;;;31.90;90.90;;;;;;4972708;28;20467;-70
2023/08/21 08:56:08;;;;;;;8.88;5.53;;;32.60;90.00;;;;;;4990180;28;20062;-70
2023/08/21 08:58:34;;;;;;;10.35;5.30;;;32.30;90.20;;;;;;4988311;28;20069;-70
2023/08/21 09:01:00;;;;;;;6.20;4.70;;;31.90;89.70;;;;;;4970108;28;20057;-70
2023/08/21 09:03:26;;;;;;;6.55;4.75;;;31.60;90.20;;;;;;4971329;28;20041;-71
2023/08/21 09:05:52;;;;;;;8.63;4.38;;;31.50;89.70;;;;;;4970843;28;20050;-71
2023/08/21 09:08:17;;;;;;;6.53;4.53;;;32.00;89.20;;;;;;4953227;28;20101;-71
2023/08/21 09:10:45;;;;;;;5.22;4.55;;;32.50;88.10;;;;;;4968386;28;20228;-72
2023/08/21 09:13:18;;;;;;;6.03;4.32;;;32.80;87.50;;;;;;4990121;28;20030;-71
2023/08/21 09:15:47;;;;;;;9.45;4.93;;;32.50;87.10;;;;;;4990073;28;20026;-72
2023/08/21 09:18:13;;;;;;;6.80;4.30;;;32.00;87.90;;;;;;4989803;28;20030;-71
2023/08/21 09:20:39;;;;;;;5.55;4.13;;;31.90;86.30;;;;;;4989974;28;20039;-71
2023/08/21 09:23:05;;;;;;;4.85;4.40;;;32.00;86.90;;;;;;4990502;28;20025;-73
2023/08/21 09:25:38;;;;;;;5.95;4.47;;;31.80;87.50;;;;;;4989892;28;20105;-73
2023/08/21 09:28:06;;;;;;;9.93;4.82;;;31.70;88.50;;;;;;4972409;28;20277;-72
2023/08/21 09:30:53;;;;;;;8.50;4.93;;;31.60;87.90;;;;;;4989986;28;20109;-71
2023/08/21 09:33:23;;;;;;;6.40;4.80;;;31.60;89.00;;;;;;4989800;28;20094;-71
2023/08/21 09:35:52;;;;;;;7.10;4.82;;;31.10;89.50;;;;;;4989671;28;20034;-71
2023/08/21 09:38:21;;;;;;;5.30;4.60;;;31.10;90.30;;;;;;4989895;28;20018;-76
2023/08/21 09:40:54;;;;;;;;;;;31.30;90.70;;;;;;4990132;28;20121;-76
2023/08/21 09:43:21;;;;;;;9.70;5.07;;;31.20;90.30;;;;;;4989916;28;19905;-76
2023/08/21 09:45:48;;;;;;;8.68;5.00;;;31.30;89.80;;;;;;4989419;28;20015;-76
2023/08/21 09:48:14;;;;;;;6.35;5.18;;;31.30;89.80;;;;;;4989739;28;20029;-75
2023/08/21 09:50:43;;;;;;;6.50;4.68;;;31.30;89.70;;;;;;4989928;28;20014;-76
2023/08/21 09:53:09;;;;;;;7.63;5.05;;;31.20;90.00;;;;;;4989511;28;20041;-76
2023/08/21 09:55:35;;;;;;;6.32;4.95;;;31.50;90.00;;;;;;4989469;28;20031;-76
2023/08/21 09:58:02;;;;;;;8.20;5.32;;;31.80;89.10;;;;;;4989388;28;20045;-76
2023/08/21 10:00:38;;;;;;;5.00;4.50;;;32.10;86.60;;;;;;4987337;28;20105;-75
2023/08/21 10:03:07;;;;;;;6.20;5.07;;;31.80;87.30;;;;;;4989076;28;20053;-76
2023/08/21 10:05:33;;;;;;;;;;;31.60;89.50;;;;;;4989558;28;20495;-77
2023/08/21 10:08:04;;;;;;;7.03;5.00;;;31.60;88.10;;;;;;4988179;28;20094;-76
2023/08/21 10:10:32;;;;;;;6.90;4.63;;;31.60;89.70;;;;;;4987657;28;20137;-76
2023/08/21 10:12:59;;;;;;;5.45;4.95;;;31.70;90.30;;;;;;4970381;28;20022;-76
2023/08/21 10:15:25;;;;;;;6.43;4.95;;;32.00;90.00;;;;;;4987783;28;20034;-76
2023/08/21 10:17:51;;;;;;;9.50;4.95;;;32.20;88.70;;;;;;4987730;28;20034;-76
2023/08/21 10:20:24;;;;;;;7.82;4.88;;;31.90;87.30;;;;;;4988189;28;20495;-76
2023/08/21 10:22:56;;;;;;;9.73;5.32;;;31.80;88.60;;;;;;4989586;28;20122;-76
2023/08/21 10:25:25;;;;;;;6.97;4.82;;;31.10;89.20;;;;;;4989381;28;20025;-76
2023/08/21 10:28:04;;;;;;;8.65;4.80;;;31.60;88.80;;;;;;4989231;28;20030;-75
2023/08/21 10:30:30;;;;;;;10.15;5.60;;;32.00;87.20;;;;;;4972526;28;20050;-78
2023/08/21 10:33:00;;;;;;;5.18;4.65;;;31.90;86.40;;;;;;4968198;28;20446;-76
2023/08/21 10:35:31;;;;;;;7.68;5.13;;;32.00;87.00;;;;;;4969965;28;20026;-76
2023/08/21 10:38:05;;;;;;;7.90;5.00;;;32.50;86.40;;;;;;4970160;28;20166;-75
2023/08/21 10:40:32;;;;;;;6.10;4.97;;;32.40;85.70;;;;;;4970153;28;20037;-76
2023/08/21 10:42:59;;;;;;;7.32;5.07;;;32.50;85.80;;;;;;4969799;28;20048;-76
2023/08/21 10:45:24;;;;;;;6.95;4.65;;;32.30;85.80;;;;;;4969614;28;20092;-76
2023/08/21 10:47:50;;;;;;;8.05;5.40;;;32.50;85.10;;;;;;4969305;28;20058;-75
2023/08/21 10:50:16;;;;;;;12.93;4.72;;;33.10;84.40;;;;;;4969528;28;20656;-76
2023/08/21 10:52:46;;;;;;;7.85;5.15;;;32.90;84.30;;;;;;4969586;28;20026;-76
2023/08/21 10:55:14;;;;;;;8.35;4.80;;;33.10;83.10;;;;;;4969785;28;20030;-76
2023/08/21 10:57:44;;;;;;;8.38;5.03;;;33.00;83.10;;;;;;4969520;28;20452;-76
2023/08/21 11:00:13;;;;;;;10.88;5.20;;;32.90;82.90;;;;;;4969190;28;20046;-76
2023/08/21 11:02:44;;;;;;;5.68;4.95;;;32.90;81.30;;;;;;4969071;28;20023;-77
2023/08/21 11:05:11;;;;;;;5.68;4.95;;;33.50;80.90;;;;;;4969523;28;20030;-76
2023/08/21 11:07:40;;;;;;;4.55;4.07;;;34.10;80.00;;;;;;4969874;28;20049;-76
2023/08/21 11:10:10;;;;;;;6.00;4.35;;;34.90;79.40;;;;;;4971082;28;20391;-77
2023/08/21 11:12:36;;;;;;;4.53;4.13;;;35.40;79.20;;;;;;4973369;28;20039;-76
2023/08/21 11:15:03;;;;;;;7.25;4.63;;;35.70;76.60;;;;;;4955754;28;20023;-79
2023/08/21 11:17:29;;;;;;;6.93;4.25;;;35.70;75.40;;;;;;4972802;28;20514;-77
2023/08/21 11:19:55;;;;;;;4.03;3.63;;;35.60;74.60;;;;;;4972518;28;20023;-79
2023/08/21 11:22:27;;;;;;;6.45;4.45;;;35.50;75.20;;;;;;4973353;28;20026;-77
2023/08/21 11:24:53;;;;;;;9.52;4.40;;;35.80;74.70;;;;;;4972966;28;20058;-78
2023/08/21 11:27:19;;;;;;;5.63;3.58;;;36.00;73.50;;;;;;4973222;28;20348;-77
2023/08/21 11:29:47;;;;;;;10.52;4.63;;;36.30;71.60;;;;;;4972967;28;20023;-79
2023/08/21 11:32:17;;;;;;;5.70;3.72;;;36.40;70.80;;;;;;4955428;28;20537;-79
2023/08/21 11:34:52;;;;;;;4.68;4.28;;;36.30;70.80;;;;;;4972570;28;20029;-77
2023/08/21 11:37:22;;;;;;;6.03;4.00;;;36.40;70.50;;;;;;4972555;28;20085;-77
2023/08/21 11:39:49;;;;;;;5.22;4.47;;;36.10;71.10;;;;;;4972797;28;20464;-79
2023/08/21 11:42:15;;;;;;;7.15;4.47;;;36.00;70.50;;;;;;4972432;28;20031;-78
2023/08/21 11:44:51;;;;;;;8.00;4.43;;;36.10;71.10;;;;;;4972437;28;20031;-76
2023/08/21 11:47:18;;;;;;;4.82;4.32;;;35.50;70.50;;;;;;4972571;28;20027;-77
2023/08/21 11:49:52;;;;;;;4.57;4.18;;;35.90;69.70;;;;;;4972202;28;20023;-77
2023/08/21 11:52:24;;;;;;;5.50;3.78;;;36.40;70.70;;;;;;4972545;28;20027;-77
2023/08/21 11:54:51;;;;;;;6.50;4.20;;;36.00;70.30;;;;;;4972195;28;20130;-79
2023/08/21 11:57:17;;;;;;;5.15;4.00;;;36.30;70.00;;;;;;4971875;28;20046;-77
2023/08/21 11:59:48;;;;;;;5.97;3.67;;;36.50;69.80;;;;;;4971941;28;20023;-77
2023/08/21 12:02:16;;;;;;;6.50;4.10;;;36.20;69.70;;;;;;4981739;28;20419;-76
2023/08/21 12:04:43;;;;;;;12.48;4.40;;;35.90;70.50;;;;;;4971804;28;20027;-76
2023/08/21 12:07:08;;;;;;;6.45;4.53;;;36.10;70.20;;;;;;4971002;28;20062;-78
2023/08/21 12:09:34;;;;;;;4.32;3.80;;;36.70;69.70;;;;;;4972183;28;20495;-77
2023/08/21 12:12:00;;;;;;;6.03;4.60;;;37.30;67.60;;;;;;4972225;28;20858;-78
2023/08/21 12:14:27;;;;;;;6.82;3.97;;;37.50;66.70;;;;;;4972282;28;20026;-77
2023/08/21 12:16:54;;;;;;;5.97;3.38;;;37.50;66.40;;;;;;4971744;28;20542;-80
2023/08/21 12:19:21;;;;;;;8.07;4.20;;;37.40;65.80;;;;;;4969371;28;20131;-76
2023/08/21 12:21:47;;;;;;;5.70;3.25;;;38.20;65.50;;;;;;4989224;28;20033;-79
2023/08/21 12:24:12;;;;;;;6.80;3.30;;;37.90;64.60;;;;;;4987174;28;20023;-77
2023/08/21 12:26:38;;;;;;;3.47;2.97;;;38.30;65.40;;;;;;4973655;28;20538;-76
2023/08/21 12:29:04;;;;;;;8.85;3.55;;;38.20;63.10;;;;;;4973395;28;20479;-78
2023/08/21 12:31:30;;;;;;;7.40;4.35;;;38.20;62.90;;;;;;4983607;28;20194;-77
2023/08/21 12:33:56;;;;;;;7.82;4.00;;;38.40;62.70;;;;;;4972758;28;20569;-79
2023/08/21 12:36:22;;;;;;;6.93;3.45;;;38.80;61.80;;;;;;4973397;28;20060;-79
2023/08/21 12:38:47;;;;;;;6.18;3.40;;;38.70;61.30;;;;;;4990883;28;20023;-77
2023/08/21 12:41:13;;;;;;;5.88;3.95;;;38.50;61.40;;;;;;4972843;28;20026;-76
2023/08/21 12:43:39;;;;;;;4.65;3.30;;;38.70;61.00;;;;;;4990991;28;20081;-81